createdAt,value
2023-06-12T00:08:24.409Z,100740.61
2023-06-12T00:18:28.223Z,100735.64
2023-06-12T00:28:32.913Z,100737.89
2023-06-12T00:38:37.889Z,100738.23
2023-06-12T00:48:44.006Z,100735.55
2023-06-12T00:58:50.338Z,100738.10
2023-06-12T01:09:17.022Z,100737.63
2023-06-12T01:19:21.580Z,100745.80
2023-06-12T01:29:55.671Z,100744.11
2023-06-12T01:40:01.921Z,100744.75
2023-06-12T01:50:10.388Z,100744.73
2023-06-12T02:00:15.426Z,100746.23
2023-06-12T02:10:24.073Z,100746.61
2023-06-12T02:20:27.835Z,100749.76
2023-06-12T02:30:31.629Z,100750.48
2023-06-12T02:40:37.871Z,100751.64
2023-06-12T02:50:42.350Z,100752.36
2023-06-12T03:00:47.649Z,100757.24
2023-06-12T03:10:55.419Z,100765.34
2023-06-12T03:20:59.581Z,100774.48
2023-06-12T03:31:05.642Z,100782.30
2023-06-12T03:41:13.405Z,100779.85
2023-06-12T03:51:17.719Z,100773.23
2023-06-12T04:01:21.840Z,100777.46
2023-06-12T04:11:26.243Z,100779.63
2023-06-12T04:21:30.551Z,100783.66
2023-06-12T04:31:34.368Z,100785.38
2023-06-12T04:41:39.147Z,100785.73
2023-06-12T04:51:43.830Z,100788.59
2023-06-12T05:01:49.175Z,100789.92
2023-06-12T05:11:54.080Z,100792.42
2023-06-12T05:21:59.856Z,100795.63
2023-06-12T05:32:06.562Z,100793.96
2023-06-12T05:42:13.985Z,100794.16
2023-06-12T05:52:18.447Z,100790.42
2023-06-12T06:02:22.669Z,100787.70
2023-06-12T06:12:28.395Z,100796.00
2023-06-12T06:22:33.438Z,100801.96
2023-06-12T06:32:37.802Z,100809.02
2023-06-12T06:42:45.811Z,100809.06
2023-06-12T06:52:49.775Z,100805.27
2023-06-12T07:02:56.426Z,100806.19
2023-06-12T07:13:04.538Z,100798.14
2023-06-12T07:23:15.436Z,100796.79
2023-06-12T07:33:19.842Z,100789.38
2023-06-12T07:43:23.798Z,100793.88
2023-06-12T07:53:37.824Z,100785.77
2023-06-12T08:03:46.714Z,100786.73
2023-06-12T08:13:55.830Z,100778.54
2023-06-12T08:24:01.873Z,100770.71
2023-06-12T08:34:10.158Z,100760.17
2023-06-12T08:44:16.718Z,100747.92
2023-06-12T08:54:24.019Z,100749.36
2023-06-12T09:04:56.316Z,100744.02
2023-06-12T09:15:05.170Z,100742.84
2023-06-12T09:25:11.065Z,100729.44
2023-06-12T09:35:15.170Z,100733.93
2023-06-12T09:45:24.863Z,100737.59
2023-06-12T09:55:30.196Z,100736.66
2023-06-12T10:05:42.450Z,100713.48
2023-06-12T10:15:48.801Z,100701.61
2023-06-12T10:25:53.715Z,100689.16
2023-06-12T10:35:58.637Z,100678.00
2023-06-12T10:46:02.467Z,100669.55
2023-06-12T10:56:09.127Z,100667.19
2023-06-12T11:06:18.019Z,100656.59
2023-06-12T11:16:24.346Z,100645.78
2023-06-12T11:26:28.578Z,100624.52
2023-06-12T11:36:40.077Z,100607.58
2023-06-12T11:46:46.117Z,100601.08
2023-06-12T11:56:56.635Z,100582.91
2023-06-12T12:07:02.404Z,100579.81
2023-06-12T12:17:09.868Z,100576.19
2023-06-12T12:27:14.977Z,100572.39
2023-06-12T12:37:18.638Z,100566.39
2023-06-12T12:47:22.597Z,100551.69
2023-06-12T12:57:33.653Z,100548.20
2023-06-12T13:07:38.909Z,100528.52
2023-06-12T13:17:42.548Z,100528.28
2023-06-12T13:27:46.254Z,100518.37
2023-06-12T13:37:50.086Z,100520.44
2023-06-12T13:47:53.765Z,100514.23
2023-06-12T13:57:57.845Z,100498.92
2023-06-12T14:08:03.901Z,100486.79
2023-06-12T14:18:08.844Z,100484.93
2023-06-12T14:28:12.455Z,100486.73
2023-06-12T14:38:16.219Z,100474.91
2023-06-12T14:48:19.991Z,100475.03
2023-06-12T14:58:23.729Z,100475.31
2023-06-12T15:08:27.577Z,100456.83
2023-06-12T15:18:42.139Z,100456.11
2023-06-12T15:28:46.849Z,100443.55
2023-06-12T15:38:52.708Z,100438.35
2023-06-12T15:48:56.530Z,100438.55
2023-06-12T15:59:00.253Z,100435.27
2023-06-12T16:09:07.055Z,100429.50
2023-06-12T16:19:13.664Z,100418.40
2023-06-12T16:29:17.944Z,100416.55
2023-06-12T16:39:21.623Z,100428.80
2023-06-12T16:49:25.349Z,100426.62
2023-06-12T16:59:29.032Z,100439.83
2023-06-12T17:09:32.690Z,100436.38
2023-06-12T17:19:36.896Z,100446.24
2023-06-12T17:29:41.514Z,100456.38
2023-06-12T17:39:45.369Z,100455.55
2023-06-12T17:49:49.117Z,100453.61
2023-06-12T17:59:52.899Z,100451.39
2023-06-12T18:09:56.781Z,100456.08
2023-06-12T18:20:01.117Z,100459.33
2023-06-12T18:30:05.230Z,100459.38
2023-06-12T18:40:10.333Z,100487.10
2023-06-12T18:50:14.116Z,100501.66
2023-06-12T19:00:18.511Z,100521.00
2023-06-12T19:10:24.471Z,100542.73
2023-06-12T19:20:30.041Z,100537.06
2023-06-12T19:30:34.964Z,100556.44
2023-06-12T19:40:38.643Z,100563.61
2023-06-12T19:50:43.007Z,100562.80
2023-06-12T20:00:47.211Z,100563.23
2023-06-12T20:10:50.937Z,100560.12
2023-06-12T20:20:54.774Z,100566.41
2023-06-12T20:30:58.698Z,100576.18
2023-06-12T20:41:02.453Z,100582.85
2023-06-12T20:51:08.641Z,100577.46
2023-06-12T21:01:12.336Z,100586.40
2023-06-12T21:11:35.084Z,100586.72
2023-06-12T21:21:39.930Z,100589.06
2023-06-12T21:31:43.684Z,100589.52
2023-06-12T21:41:47.380Z,100592.27
2023-06-12T21:51:52.808Z,100594.53
2023-06-12T22:01:57.794Z,100574.97
2023-06-12T22:12:04.714Z,100565.28
2023-06-12T22:22:08.461Z,100563.73
2023-06-12T22:32:12.264Z,100555.09
2023-06-12T22:42:16.192Z,100551.73
2023-06-12T22:52:22.044Z,100546.23
2023-06-12T23:02:26.055Z,100532.58
2023-06-12T23:12:29.833Z,100519.02
2023-06-12T23:22:34.959Z,100508.80
2023-06-12T23:32:41.884Z,100507.44
2023-06-12T23:42:47.265Z,100494.84
2023-06-12T23:52:51.032Z,100487.16
